sensor_id;sensor_type;location;lat;lon;timestamp;pressure;altitude;pressure_sealevel;temperature;humidity
77321;BME280;66382;52.252;8.780;2023-04-24T00:00:25;99054.41;;;12.32;58.09
77321;BME280;66382;52.252;8.780;2023-04-24T00:02:51;99058.72;;;12.33;60.23
77321;BME280;66382;52.252;8.780;2023-04-24T00:05:17;99055.81;;;12.34;59.04
77321;BME280;66382;52.252;8.780;2023-04-24T00:07:44;99054.41;;;12.32;59.74
77321;BME280;66382;52.252;8.780;2023-04-24T00:10:10;99064.44;;;12.36;60.41
77321;BME280;66382;52.252;8.780;2023-04-24T00:12:36;99053.94;;;12.35;58.22
77321;BME280;66382;52.252;8.780;2023-04-24T00:15:03;99059.31;;;12.35;58.67
77321;BME280;66382;52.252;8.780;2023-04-24T00:17:28;99064.09;;;12.33;59.11
77321;BME280;66382;52.252;8.780;2023-04-24T00:19:54;99056.75;;;12.28;57.88
77321;BME280;66382;52.252;8.780;2023-04-24T00:22:20;99066.34;;;12.24;58.13
77321;BME280;66382;52.252;8.780;2023-04-24T00:24:47;99067.03;;;12.19;57.50
77321;BME280;66382;52.252;8.780;2023-04-24T00:27:13;99057.47;;;12.12;58.12
77321;BME280;66382;52.252;8.780;2023-04-24T00:29:38;99063.28;;;12.09;58.47
77321;BME280;66382;52.252;8.780;2023-04-24T00:32:04;99068.53;;;12.03;57.89
77321;BME280;66382;52.252;8.780;2023-04-24T00:34:30;99068.44;;;11.98;57.68
77321;BME280;66382;52.252;8.780;2023-04-24T00:36:55;99064.59;;;11.94;57.50
77321;BME280;66382;52.252;8.780;2023-04-24T00:39:21;99073.09;;;11.91;58.57
77321;BME280;66382;52.252;8.780;2023-04-24T00:41:49;99065.84;;;11.92;58.46
77321;BME280;66382;52.252;8.780;2023-04-24T00:44:14;99068.09;;;11.95;58.28
77321;BME280;66382;52.252;8.780;2023-04-24T00:46:40;99065.16;;;11.96;57.99
77321;BME280;66382;52.252;8.780;2023-04-24T00:49:06;99065.53;;;12.00;57.30
77321;BME280;66382;52.252;8.780;2023-04-24T00:51:32;99055.81;;;11.99;57.40
77321;BME280;66382;52.252;8.780;2023-04-24T00:53:58;99052.56;;;11.97;57.60
77321;BME280;66382;52.252;8.780;2023-04-24T00:56:23;99053.38;;;11.97;57.53
77321;BME280;66382;52.252;8.780;2023-04-24T00:58:51;99048.59;;;11.99;57.85
77321;BME280;66382;52.252;8.780;2023-04-24T01:01:17;99048.34;;;12.01;58.97
77321;BME280;66382;52.252;8.780;2023-04-24T01:03:43;99048.34;;;12.01;58.17
77321;BME280;66382;52.252;8.780;2023-04-24T01:06:09;99048.13;;;12.02;59.40
77321;BME280;66382;52.252;8.780;2023-04-24T01:08:35;99052.69;;;12.02;57.76
77321;BME280;66382;52.252;8.780;2023-04-24T01:11:03;99050.22;;;12.00;58.23
77321;BME280;66382;52.252;8.780;2023-04-24T01:13:29;99049.88;;;11.97;57.62
77321;BME280;66382;52.252;8.780;2023-04-24T01:15:56;99046.81;;;11.93;57.59
77321;BME280;66382;52.252;8.780;2023-04-24T01:18:22;99037.59;;;11.89;58.10
77321;BME280;66382;52.252;8.780;2023-04-24T01:20:51;99045.09;;;11.87;58.84
77321;BME280;66382;52.252;8.780;2023-04-24T01:23:19;99033.94;;;11.83;58.08
77321;BME280;66382;52.252;8.780;2023-04-24T01:25:45;99031.34;;;11.77;58.72
77321;BME280;66382;52.252;8.780;2023-04-24T01:28:12;99044.56;;;11.78;58.63
77321;BME280;66382;52.252;8.780;2023-04-24T01:30:37;99038.97;;;11.80;57.87
77321;BME280;66382;52.252;8.780;2023-04-24T01:33:03;99031.13;;;11.78;58.14
77321;BME280;66382;52.252;8.780;2023-04-24T01:35:29;99036.03;;;11.81;57.98
77321;BME280;66382;52.252;8.780;2023-04-24T01:37:55;99028.56;;;11.83;59.27
77321;BME280;66382;52.252;8.780;2023-04-24T01:40:22;99017.25;;;11.81;58.52
77321;BME280;66382;52.252;8.780;2023-04-24T01:42:48;99019.63;;;11.90;57.87
77321;BME280;66382;52.252;8.780;2023-04-24T01:45:14;99021.25;;;11.91;58.57
77321;BME280;66382;52.252;8.780;2023-04-24T01:47:39;99016.94;;;11.90;58.13
77321;BME280;66382;52.252;8.780;2023-04-24T01:50:06;99014.47;;;11.88;58.08
77321;BME280;66382;52.252;8.780;2023-04-24T01:52:32;99012.84;;;11.87;58.97
77321;BME280;66382;52.252;8.780;2023-04-24T01:54:59;99016.53;;;11.86;58.37
77321;BME280;66382;52.252;8.780;2023-04-24T01:57:26;99019.47;;;11.84;58.97
77321;BME280;66382;52.252;8.780;2023-04-24T01:59:52;99018.91;;;11.82;57.88
77321;BME280;66382;52.252;8.780;2023-04-24T02:02:18;99008.25;;;11.76;58.48
77321;BME280;66382;52.252;8.780;2023-04-24T02:04:43;99015.25;;;11.77;58.97
77321;BME280;66382;52.252;8.780;2023-04-24T02:07:09;99030.53;;;11.76;57.93
77321;BME280;66382;52.252;8.780;2023-04-24T02:09:35;99018.41;;;11.74;59.06
77321;BME280;66382;52.252;8.780;2023-04-24T02:12:00;99016.78;;;11.73;58.89
77321;BME280;66382;52.252;8.780;2023-04-24T02:14:27;99026.25;;;11.75;58.32
77321;BME280;66382;52.252;8.780;2023-04-24T02:16:53;99013.72;;;11.69;59.23
77321;BME280;66382;52.252;8.780;2023-04-24T02:19:19;99023.31;;;11.77;59.03
77321;BME280;66382;52.252;8.780;2023-04-24T02:21:44;99035.09;;;11.76;58.96
77321;BME280;66382;52.252;8.780;2023-04-24T02:24:10;99026.00;;;11.65;59.63
77321;BME280;66382;52.252;8.780;2023-04-24T02:26:36;99028.09;;;11.63;58.98
77321;BME280;66382;52.252;8.780;2023-04-24T02:29:02;99030.53;;;11.65;59.87
77321;BME280;66382;52.252;8.780;2023-04-24T02:31:29;99043.81;;;11.59;59.69
77321;BME280;66382;52.252;8.780;2023-04-24T02:33:54;99031.13;;;11.55;59.48
77321;BME280;66382;52.252;8.780;2023-04-24T02:36:20;99026.56;;;11.55;58.90
77321;BME280;66382;52.252;8.780;2023-04-24T02:38:46;99030.28;;;11.54;58.86
77321;BME280;66382;52.252;8.780;2023-04-24T02:41:11;99035.09;;;11.52;59.15
77321;BME280;66382;52.252;8.780;2023-04-24T02:43:37;99034.94;;;11.47;59.47
77321;BME280;66382;52.252;8.780;2023-04-24T02:46:03;99039.38;;;11.41;59.52
77321;BME280;66382;52.252;8.780;2023-04-24T02:48:30;99032.84;;;11.37;58.31
77321;BME280;66382;52.252;8.780;2023-04-24T02:50:56;99034.56;;;11.32;58.50
77321;BME280;66382;52.252;8.780;2023-04-24T02:53:21;99035.25;;;11.27;58.24
77321;BME280;66382;52.252;8.780;2023-04-24T02:55:47;99030.59;;;11.23;57.40
77321;BME280;66382;52.252;8.780;2023-04-24T02:58:13;99036.84;;;11.16;58.89
77321;BME280;66382;52.252;8.780;2023-04-24T03:00:38;99032.97;;;11.12;59.31
77321;BME280;66382;52.252;8.780;2023-04-24T03:03:04;99017.91;;;11.00;59.08
77321;BME280;66382;52.252;8.780;2023-04-24T03:05:32;99033.44;;;11.09;58.59
77321;BME280;66382;52.252;8.780;2023-04-24T03:07:57;99029.13;;;11.08;58.83
77321;BME280;66382;52.252;8.780;2023-04-24T03:10:23;99032.03;;;11.07;58.82
77321;BME280;66382;52.252;8.780;2023-04-24T03:12:49;99031.00;;;11.08;58.69
77321;BME280;66382;52.252;8.780;2023-04-24T03:15:14;99033.31;;;11.04;59.22
77321;BME280;66382;52.252;8.780;2023-04-24T03:17:40;99028.41;;;11.01;59.02
77321;BME280;66382;52.252;8.780;2023-04-24T03:20:07;99033.97;;;11.00;57.64
77321;BME280;66382;52.252;8.780;2023-04-24T03:22:34;99036.53;;;10.94;59.15
77321;BME280;66382;52.252;8.780;2023-04-24T03:25:00;99035.13;;;10.92;59.39
77321;BME280;66382;52.252;8.780;2023-04-24T03:27:26;99029.75;;;10.92;59.15
77321;BME280;66382;52.252;8.780;2023-04-24T03:29:52;99038.63;;;10.92;59.55
77321;BME280;66382;52.252;8.780;2023-04-24T03:32:17;99033.03;;;10.94;59.38
77321;BME280;66382;52.252;8.780;2023-04-24T03:34:43;99036.91;;;10.98;58.63
77321;BME280;66382;52.252;8.780;2023-04-24T03:37:09;99035.38;;;11.02;58.45
77321;BME280;66382;52.252;8.780;2023-04-24T03:39:36;99031.09;;;11.01;58.23
77321;BME280;66382;52.252;8.780;2023-04-24T03:42:02;99036.38;;;11.08;59.18
77321;BME280;66382;52.252;8.780;2023-04-24T03:44:27;99033.22;;;11.11;59.60
77321;BME280;66382;52.252;8.780;2023-04-24T03:46:53;99036.84;;;11.16;58.83
77321;BME280;66382;52.252;8.780;2023-04-24T03:49:19;99033.69;;;11.19;58.11
77321;BME280;66382;52.252;8.780;2023-04-24T03:51:44;99032.22;;;11.24;59.00
77321;BME280;66382;52.252;8.780;2023-04-24T03:54:10;99033.28;;;11.23;58.34
77321;BME280;66382;52.252;8.780;2023-04-24T03:56:37;99031.41;;;11.23;58.35
77321;BME280;66382;52.252;8.780;2023-04-24T03:59:03;99034.66;;;11.25;58.48
77321;BME280;66382;52.252;8.780;2023-04-24T04:01:28;99029.88;;;11.27;58.97
77321;BME280;66382;52.252;8.780;2023-04-24T04:03:54;99033.97;;;11.30;59.88
77321;BME280;66382;52.252;8.780;2023-04-24T04:06:20;99039.44;;;11.35;59.34
77321;BME280;66382;52.252;8.780;2023-04-24T04:08:45;99030.59;;;11.34;58.78
77321;BME280;66382;52.252;8.780;2023-04-24T04:11:11;99019.84;;;11.34;58.46
77321;BME280;66382;52.252;8.780;2023-04-24T04:13:38;99030.97;;;11.38;58.92
77321;BME280;66382;52.252;8.780;2023-04-24T04:16:05;99033.06;;;11.36;59.48
77321;BME280;66382;52.252;8.780;2023-04-24T04:18:30;99030.97;;;11.38;59.24
77321;BME280;66382;52.252;8.780;2023-04-24T04:20:56;99035.28;;;11.39;58.79
77321;BME280;66382;52.252;8.780;2023-04-24T04:23:22;99033.66;;;11.38;58.10
77321;BME280;66382;52.252;8.780;2023-04-24T04:25:47;99033.97;;;11.30;58.11
77321;BME280;66382;52.252;8.780;2023-04-24T04:28:13;99042.59;;;11.32;58.24
77321;BME280;66382;52.252;8.780;2023-04-24T04:30:40;99036.44;;;11.31;59.63
77321;BME280;66382;52.252;8.780;2023-04-24T04:33:06;99032.69;;;11.32;58.69
77321;BME280;66382;52.252;8.780;2023-04-24T04:35:32;99032.34;;;11.29;58.06
77321;BME280;66382;52.252;8.780;2023-04-24T04:37:57;99033.41;;;11.28;58.28
77321;BME280;66382;52.252;8.780;2023-04-24T04:40:23;99033.28;;;11.23;57.95
77321;BME280;66382;52.252;8.780;2023-04-24T04:42:49;99023.78;;;11.20;58.78
77321;BME280;66382;52.252;8.780;2023-04-24T04:45:14;99027.31;;;11.21;58.84
77321;BME280;66382;52.252;8.780;2023-04-24T04:47:41;99035.94;;;11.23;58.83
77321;BME280;66382;52.252;8.780;2023-04-24T04:50:08;99034.88;;;11.24;59.38
77321;BME280;66382;52.252;8.780;2023-04-24T04:52:34;99038.16;;;11.26;58.86
77321;BME280;66382;52.252;8.780;2023-04-24T04:55:00;99041.44;;;11.28;57.66
77321;BME280;66382;52.252;8.780;2023-04-24T04:57:25;99034.44;;;11.27;58.33
77321;BME280;66382;52.252;8.780;2023-04-24T04:59:51;99044.13;;;11.28;58.04
77321;BME280;66382;52.252;8.780;2023-04-24T05:02:17;99043.88;;;11.29;58.15
77321;BME280;66382;52.252;8.780;2023-04-24T05:04:44;99040.38;;;11.29;58.29
77321;BME280;66382;52.252;8.780;2023-04-24T05:07:10;99040.59;;;11.27;58.25
77321;BME280;66382;52.252;8.780;2023-04-24T05:09:35;99046.56;;;11.29;57.64
77321;BME280;66382;52.252;8.780;2023-04-24T05:12:01;99053.81;;;11.29;58.21
77321;BME280;66382;52.252;8.780;2023-04-24T05:14:27;99044.47;;;11.31;58.05
77321;BME280;66382;52.252;8.780;2023-04-24T05:16:52;99057.28;;;11.29;58.49
77321;BME280;66382;52.252;8.780;2023-04-24T05:19:18;99064.31;;;11.30;59.37
77321;BME280;66382;52.252;8.780;2023-04-24T05:21:45;99065.72;;;11.33;58.55
77321;BME280;66382;52.252;8.780;2023-04-24T05:24:11;99073.31;;;11.36;58.76
77321;BME280;66382;52.252;8.780;2023-04-24T05:26:37;99078.53;;;11.31;58.59
77321;BME280;66382;52.252;8.780;2023-04-24T05:29:03;99084.38;;;11.28;58.28
77321;BME280;66382;52.252;8.780;2023-04-24T05:31:28;99082.72;;;11.27;59.00
77321;BME280;66382;52.252;8.780;2023-04-24T05:33:54;99081.31;;;11.24;58.35
77321;BME280;66382;52.252;8.780;2023-04-24T05:36:20;99077.00;;;11.23;58.75
77321;BME280;66382;52.252;8.780;2023-04-24T05:38:47;99076.63;;;11.19;58.08
77321;BME280;66382;52.252;8.780;2023-04-24T05:41:12;99082.91;;;11.13;57.92
77321;BME280;66382;52.252;8.780;2023-04-24T05:43:38;99085.88;;;11.05;58.95
77321;BME280;66382;52.252;8.780;2023-04-24T05:46:04;99079.09;;;11.03;58.70
77321;BME280;66382;52.252;8.780;2023-04-24T05:48:30;99083.91;;;11.01;58.90
77321;BME280;66382;52.252;8.780;2023-04-24T05:50:55;99082.25;;;11.00;58.86
77321;BME280;66382;52.252;8.780;2023-04-24T05:53:21;99080.38;;;11.00;58.80
77321;BME280;66382;52.252;8.780;2023-04-24T05:55:48;99074.44;;;10.98;59.00
77321;BME280;66382;52.252;8.780;2023-04-24T05:58:14;99074.59;;;11.03;59.66
77321;BME280;66382;52.252;8.780;2023-04-24T06:00:40;99068.97;;;11.05;59.30
77321;BME280;66382;52.252;8.780;2023-04-24T06:03:05;99073.06;;;11.07;58.73
77321;BME280;66382;52.252;8.780;2023-04-24T06:05:31;99069.78;;;11.05;59.53
77321;BME280;66382;52.252;8.780;2023-04-24T06:07:57;99071.81;;;11.10;59.55
77321;BME280;66382;52.252;8.780;2023-04-24T06:10:24;99075.06;;;11.12;59.26
77321;BME280;66382;52.252;8.780;2023-04-24T06:12:51;99075.53;;;11.09;59.10
77321;BME280;66382;52.252;8.780;2023-04-24T06:15:16;99087.31;;;11.08;58.92
77321;BME280;66382;52.252;8.780;2023-04-24T06:17:42;99082.19;;;11.06;58.80
77321;BME280;66382;52.252;8.780;2023-04-24T06:20:08;99084.03;;;11.06;58.78
77321;BME280;66382;52.252;8.780;2023-04-24T06:22:34;99076.34;;;11.09;59.20
77321;BME280;66382;52.252;8.780;2023-04-24T06:25:00;99073.06;;;11.07;59.32
77321;BME280;66382;52.252;8.780;2023-04-24T06:27:26;99084.78;;;11.13;59.42
77321;BME280;66382;52.252;8.780;2023-04-24T06:29:53;99086.53;;;11.19;59.87
77321;BME280;66382;52.252;8.780;2023-04-24T06:32:18;99091.09;;;11.18;58.91
77321;BME280;66382;52.252;8.780;2023-04-24T06:34:45;99092.03;;;11.24;58.61
77321;BME280;66382;52.252;8.780;2023-04-24T06:37:10;99087.34;;;11.19;59.12
77321;BME280;66382;52.252;8.780;2023-04-24T06:39:36;99087.34;;;11.19;58.58
77321;BME280;66382;52.252;8.780;2023-04-24T06:42:02;99098.31;;;11.18;58.50
77321;BME280;66382;52.252;8.780;2023-04-24T06:44:27;99092.56;;;11.14;59.47
77321;BME280;66382;52.252;8.780;2023-04-24T06:46:55;99079.16;;;11.14;58.65
77321;BME280;66382;52.252;8.780;2023-04-24T06:49:20;99089.59;;;11.23;59.72
77321;BME280;66382;52.252;8.780;2023-04-24T06:51:46;99092.16;;;11.29;59.89
77321;BME280;66382;52.252;8.780;2023-04-24T06:54:12;99095.00;;;11.34;58.56
77321;BME280;66382;52.252;8.780;2023-04-24T06:56:37;99099.53;;;11.34;59.09
77321;BME280;66382;52.252;8.780;2023-04-24T06:59:03;99096.41;;;11.37;59.95
77321;BME280;66382;52.252;8.780;2023-04-24T07:01:29;99100.72;;;11.38;59.83
77321;BME280;66382;52.252;8.780;2023-04-24T07:03:56;99110.41;;;11.39;59.51
77321;BME280;66382;52.252;8.780;2023-04-24T07:06:22;99103.63;;;11.36;59.24
77321;BME280;66382;52.252;8.780;2023-04-24T07:08:47;99103.72;;;11.30;59.12
77321;BME280;66382;52.252;8.780;2023-04-24T07:11:13;99104.63;;;11.24;58.64
77321;BME280;66382;52.252;8.780;2023-04-24T07:13:39;99100.09;;;11.24;58.39
77321;BME280;66382;52.252;8.780;2023-04-24T07:16:04;99108.38;;;11.23;59.60
77321;BME280;66382;52.252;8.780;2023-04-24T07:18:30;99105.53;;;11.17;59.48
77321;BME280;66382;52.252;8.780;2023-04-24T07:20:57;99112.69;;;11.24;59.37
77321;BME280;66382;52.252;8.780;2023-04-24T07:23:23;99101.75;;;11.25;59.44
77321;BME280;66382;52.252;8.780;2023-04-24T07:25:49;99109.94;;;11.30;58.94
77321;BME280;66382;52.252;8.780;2023-04-24T07:28:14;99105.38;;;11.31;59.13
77321;BME280;66382;52.252;8.780;2023-04-24T07:30:40;99121.22;;;11.32;58.89
77321;BME280;66382;52.252;8.780;2023-04-24T07:33:06;99120.19;;;11.33;59.27
77321;BME280;66382;52.252;8.780;2023-04-24T07:35:32;99109.47;;;11.33;58.68
77321;BME280;66382;52.252;8.780;2023-04-24T07:38:00;99132.56;;;11.34;58.90
77321;BME280;66382;52.252;8.780;2023-04-24T07:40:26;99118.53;;;11.32;59.97
77321;BME280;66382;52.252;8.780;2023-04-24T07:42:51;99122.28;;;11.31;58.18
77321;BME280;66382;52.252;8.780;2023-04-24T07:45:17;99130.19;;;11.26;59.64
77321;BME280;66382;52.252;8.780;2023-04-24T07:47:43;99127.28;;;11.28;58.61
77321;BME280;66382;52.252;8.780;2023-04-24T07:50:09;99122.97;;;11.27;58.80
77321;BME280;66382;52.252;8.780;2023-04-24T07:52:35;99128.31;;;11.27;58.81
77321;BME280;66382;52.252;8.780;2023-04-24T07:55:03;99129.97;;;11.28;59.00
77321;BME280;66382;52.252;8.780;2023-04-24T07:57:29;99128.31;;;11.27;59.18
77321;BME280;66382;52.252;8.780;2023-04-24T07:59:54;99137.09;;;11.34;58.33
77321;BME280;66382;52.252;8.780;2023-04-24T08:02:20;99132.34;;;11.36;59.90
77321;BME280;66382;52.252;8.780;2023-04-24T08:04:46;99131.13;;;11.50;59.14
77321;BME280;66382;52.252;8.780;2023-04-24T08:07:12;99120.84;;;11.59;58.83
77321;BME280;66382;52.252;8.780;2023-04-24T08:09:37;99131.63;;;11.71;59.03
77321;BME280;66382;52.252;8.780;2023-04-24T08:12:05;99127.59;;;11.92;59.40
77321;BME280;66382;52.252;8.780;2023-04-24T08:14:30;99135.03;;;12.20;59.58
77321;BME280;66382;52.252;8.780;2023-04-24T08:16:56;99138.16;;;12.29;58.96
77321;BME280;66382;52.252;8.780;2023-04-24T08:19:22;99137.00;;;12.24;57.68
77321;BME280;66382;52.252;8.780;2023-04-24T08:21:47;99132.81;;;12.17;58.00
77321;BME280;66382;52.252;8.780;2023-04-24T08:24:13;99138.50;;;12.09;58.15
77321;BME280;66382;52.252;8.780;2023-04-24T08:26:39;99141.31;;;12.02;57.45
77321;BME280;66382;52.252;8.780;2023-04-24T08:29:06;99149.94;;;11.92;58.14
77321;BME280;66382;52.252;8.780;2023-04-24T08:31:32;99151.88;;;11.85;58.01
77321;BME280;66382;52.252;8.780;2023-04-24T08:33:58;99144.84;;;11.84;57.40
77321;BME280;66382;52.252;8.780;2023-04-24T08:36:24;99149.06;;;11.80;58.08
77321;BME280;66382;52.252;8.780;2023-04-24T08:38:50;99156.16;;;11.74;58.23
77321;BME280;66382;52.252;8.780;2023-04-24T08:41:17;99155.19;;;11.69;58.42
77321;BME280;66382;52.252;8.780;2023-04-24T08:43:43;99151.91;;;11.67;58.34
77321;BME280;66382;52.252;8.780;2023-04-24T08:46:13;99155.19;;;11.69;58.59
77321;BME280;66382;52.252;8.780;2023-04-24T08:48:39;99148.88;;;11.63;58.00
77321;BME280;66382;52.252;8.780;2023-04-24T08:51:07;99158.56;;;11.64;58.43
77321;BME280;66382;52.252;8.780;2023-04-24T08:53:33;99152.28;;;11.70;58.88
77321;BME280;66382;52.252;8.780;2023-04-24T08:55:58;99160.41;;;11.82;58.47
77321;BME280;66382;52.252;8.780;2023-04-24T08:58:27;99156.25;;;11.98;58.42
77321;BME280;66382;52.252;8.780;2023-04-24T09:00:54;99153.09;;;12.01;58.46
77321;BME280;66382;52.252;8.780;2023-04-24T09:03:22;99156.38;;;12.03;57.63
77321;BME280;66382;52.252;8.780;2023-04-24T09:05:49;99163.50;;;11.97;58.49
77321;BME280;66382;52.252;8.780;2023-04-24T09:08:16;99165.13;;;11.98;58.13
77321;BME280;66382;52.252;8.780;2023-04-24T09:10:43;99168.88;;;11.97;58.19
77321;BME280;66382;52.252;8.780;2023-04-24T09:13:09;99167.94;;;12.03;58.84
77321;BME280;66382;52.252;8.780;2023-04-24T09:15:35;99169.25;;;12.13;58.10
77321;BME280;66382;52.252;8.780;2023-04-24T09:18:01;99161.31;;;12.18;58.67
77321;BME280;66382;52.252;8.780;2023-04-24T09:20:28;99173.94;;;12.29;57.43
77321;BME280;66382;52.252;8.780;2023-04-24T09:22:54;99157.56;;;12.31;57.54
77321;BME280;66382;52.252;8.780;2023-04-24T09:25:21;99162.47;;;12.22;57.69
77321;BME280;66382;52.252;8.780;2023-04-24T09:27:46;99160.72;;;12.16;58.04
77321;BME280;66382;52.252;8.780;2023-04-24T09:30:13;99167.63;;;12.12;57.75
77321;BME280;66382;52.252;8.780;2023-04-24T09:32:39;99174.00;;;11.99;57.48
77321;BME280;66382;52.252;8.780;2023-04-24T09:35:07;99173.84;;;11.94;56.94
77321;BME280;66382;52.252;8.780;2023-04-24T09:37:37;99184.78;;;11.80;57.30
77321;BME280;66382;52.252;8.780;2023-04-24T09:40:14;99177.50;;;11.69;56.97
77321;BME280;66382;52.252;8.780;2023-04-24T09:42:43;99189.38;;;11.61;57.75
77321;BME280;66382;52.252;8.780;2023-04-24T09:45:10;99198.56;;;11.54;57.89
77321;BME280;66382;52.252;8.780;2023-04-24T09:47:36;99190.75;;;11.52;57.29
77321;BME280;66382;52.252;8.780;2023-04-24T09:50:09;99196.88;;;11.41;58.17
77321;BME280;66382;52.252;8.780;2023-04-24T09:52:39;99194.41;;;11.39;57.60
77321;BME280;66382;52.252;8.780;2023-04-24T09:55:10;99189.50;;;11.36;57.34
77321;BME280;66382;52.252;8.780;2023-04-24T09:57:47;99191.38;;;11.36;57.39
77321;BME280;66382;52.252;8.780;2023-04-24T10:00:13;99192.19;;;11.36;57.41
77321;BME280;66382;52.252;8.780;2023-04-24T10:02:43;99200.00;;;11.38;57.97
77321;BME280;66382;52.252;8.780;2023-04-24T10:05:11;99194.66;;;11.38;57.65
77321;BME280;66382;52.252;8.780;2023-04-24T10:07:38;99191.50;;;11.41;58.33
77321;BME280;66382;52.252;8.780;2023-04-24T10:10:06;99181.00;;;11.39;57.96
77321;BME280;66382;52.252;8.780;2023-04-24T10:12:32;99188.75;;;11.48;58.36
77321;BME280;66382;52.252;8.780;2023-04-24T10:14:58;99183.50;;;11.53;58.06
77321;BME280;66382;52.252;8.780;2023-04-24T10:17:25;99180.44;;;11.49;57.50
77321;BME280;66382;52.252;8.780;2023-04-24T10:19:51;99184.88;;;11.44;58.52
77321;BME280;66382;52.252;8.780;2023-04-24T10:22:17;99189.63;;;11.41;58.24
77321;BME280;66382;52.252;8.780;2023-04-24T10:24:45;99190.31;;;11.37;58.03
77321;BME280;66382;52.252;8.780;2023-04-24T10:27:13;99196.72;;;11.36;57.48
77321;BME280;66382;52.252;8.780;2023-04-24T10:29:40;99196.53;;;11.37;57.86
77321;BME280;66382;52.252;8.780;2023-04-24T10:32:07;99193.25;;;11.35;58.01
77321;BME280;66382;52.252;8.780;2023-04-24T10:34:32;99200.97;;;11.44;58.87
77321;BME280;66382;52.252;8.780;2023-04-24T10:36:58;99200.78;;;11.57;58.47
77321;BME280;66382;52.252;8.780;2023-04-24T10:39:24;99205.53;;;11.73;58.26
77321;BME280;66382;52.252;8.780;2023-04-24T10:41:51;99202.81;;;11.92;58.68
77321;BME280;66382;52.252;8.780;2023-04-24T10:44:22;99208.00;;;12.05;58.91
77321;BME280;66382;52.252;8.780;2023-04-24T10:46:53;99212.22;;;12.13;58.48
77321;BME280;66382;52.252;8.780;2023-04-24T10:49:28;99213.28;;;12.12;57.40
77321;BME280;66382;52.252;8.780;2023-04-24T10:52:00;99221.31;;;12.00;58.08
77321;BME280;66382;52.252;8.780;2023-04-24T10:54:27;99201.66;;;11.88;58.34
77321;BME280;66382;52.252;8.780;2023-04-24T10:57:25;99214.81;;;11.89;56.98
77321;BME280;66382;52.252;8.780;2023-04-24T11:00:10;99217.00;;;11.80;57.56
77321;BME280;66382;52.252;8.780;2023-04-24T11:02:39;99221.63;;;11.73;58.20
77321;BME280;66382;52.252;8.780;2023-04-24T11:05:06;99225.47;;;11.66;58.46
77321;BME280;66382;52.252;8.780;2023-04-24T11:08:12;99231.72;;;11.59;58.56
77321;BME280;66382;52.252;8.780;2023-04-24T11:10:39;99234.13;;;11.49;57.75
77321;BME280;66382;52.252;8.780;2023-04-24T11:13:06;99229.53;;;11.38;58.39
77321;BME280;66382;52.252;8.780;2023-04-24T11:15:32;99246.06;;;11.35;58.84
77321;BME280;66382;52.252;8.780;2023-04-24T11:17:58;99243.84;;;11.32;59.31
77321;BME280;66382;52.252;8.780;2023-04-24T11:20:25;99237.28;;;11.28;58.81
77321;BME280;66382;52.252;8.780;2023-04-24T11:22:52;99239.28;;;11.32;59.16
77321;BME280;66382;52.252;8.780;2023-04-24T11:25:18;99248.31;;;11.38;59.38
77321;BME280;66382;52.252;8.780;2023-04-24T11:27:44;99249.28;;;11.44;60.35
77321;BME280;66382;52.252;8.780;2023-04-24T11:30:12;99248.00;;;11.46;60.28
77321;BME280;66382;52.252;8.780;2023-04-24T11:32:42;99259.06;;;11.38;58.95
77321;BME280;66382;52.252;8.780;2023-04-24T11:35:12;99258.97;;;11.26;59.47
77321;BME280;66382;52.252;8.780;2023-04-24T11:37:39;99267.75;;;11.15;60.20
77321;BME280;66382;52.252;8.780;2023-04-24T11:40:07;99271.19;;;11.04;59.58
77321;BME280;66382;52.252;8.780;2023-04-24T11:42:34;99278.50;;;10.90;60.41
77321;BME280;66382;52.252;8.780;2023-04-24T11:45:00;99280.88;;;10.80;60.81
77321;BME280;66382;52.252;8.780;2023-04-24T11:47:31;99293.91;;;10.76;61.71
77321;BME280;66382;52.252;8.780;2023-04-24T11:49:58;99299.28;;;10.76;61.06
77321;BME280;66382;52.252;8.780;2023-04-24T11:52:23;99301.97;;;10.76;61.97
77321;BME280;66382;52.252;8.780;2023-04-24T11:54:49;99312.88;;;10.74;62.73
77321;BME280;66382;52.252;8.780;2023-04-24T11:57:15;99310.81;;;10.76;61.77
77321;BME280;66382;52.252;8.780;2023-04-24T11:59:41;99313.28;;;10.78;60.84
77321;BME280;66382;52.252;8.780;2023-04-24T12:02:08;99316.53;;;10.80;60.48
77321;BME280;66382;52.252;8.780;2023-04-24T12:04:41;99313.28;;;10.78;60.95
77321;BME280;66382;52.252;8.780;2023-04-24T12:07:07;99322.31;;;10.84;62.66
77321;BME280;66382;52.252;8.780;2023-04-24T12:09:43;99326.56;;;10.91;61.81
77321;BME280;66382;52.252;8.780;2023-04-24T12:12:11;99327.38;;;10.92;61.71
77321;BME280;66382;52.252;8.780;2023-04-24T12:14:47;99327.84;;;10.89;60.86
77321;BME280;66382;52.252;8.780;2023-04-24T12:17:13;99332.97;;;10.90;60.99
77321;BME280;66382;52.252;8.780;2023-04-24T12:19:46;99337.34;;;10.85;60.58
77321;BME280;66382;52.252;8.780;2023-04-24T12:22:12;99348.78;;;10.73;61.21
77321;BME280;66382;52.252;8.780;2023-04-24T12:24:59;99348.63;;;10.68;61.67
77321;BME280;66382;52.252;8.780;2023-04-24T12:27:25;99356.22;;;10.71;62.97
77321;BME280;66382;52.252;8.780;2023-04-24T12:29:52;99355.41;;;10.71;62.68
77321;BME280;66382;52.252;8.780;2023-04-24T12:32:18;99370.44;;;10.72;63.01
77321;BME280;66382;52.252;8.780;2023-04-24T12:34:43;99374.38;;;10.69;62.15
77321;BME280;66382;52.252;8.780;2023-04-24T12:37:11;99378.97;;;10.62;62.73
77321;BME280;66382;52.252;8.780;2023-04-24T12:39:37;99379.59;;;10.58;62.35
77321;BME280;66382;52.252;8.780;2023-04-24T12:42:02;99388.91;;;10.55;63.68
77321;BME280;66382;52.252;8.780;2023-04-24T12:44:29;99389.13;;;10.53;62.13
77321;BME280;66382;52.252;8.780;2023-04-24T12:46:55;99394.50;;;10.53;62.56
77321;BME280;66382;52.252;8.780;2023-04-24T12:49:21;99403.34;;;10.54;64.27
77321;BME280;66382;52.252;8.780;2023-04-24T12:51:46;99396.94;;;10.55;63.32
77321;BME280;66382;52.252;8.780;2023-04-24T12:54:13;99409.69;;;10.60;64.13
77321;BME280;66382;52.252;8.780;2023-04-24T12:56:39;99411.31;;;10.61;63.81